Time;durP1;ratioP1;P1;durP2;ratioP2;P2;SDS_P1;SDS_P2;PMS_P1;PMS_P2;Temp;Humidity;BMP_temperature;BMP_pressure;BME280_temperature;BME280_humidity;BME280_pressure;Samples;Min_cycle;Max_cycle;Signal;HPM_P1;HPM_P2
2020/12/04 00:02:21;;;;;;;18.80;17.20;;;4.60;99.90;;;;;;4939086;28;20469;-74
2020/12/04 00:04:47;;;;;;;18.27;17.00;;;4.70;99.90;;;;;;4936696;29;20996;-76
2020/12/04 00:07:13;;;;;;;17.40;15.87;;;4.70;99.90;;;;;;4942012;29;20464;-76
2020/12/04 00:09:42;;;;;;;18.97;17.23;;;4.70;99.90;;;;;;4943637;29;20464;-74
2020/12/04 00:12:09;;;;;;;16.53;15.40;;;4.70;99.90;;;;;;4938131;29;20468;-74
2020/12/04 00:14:35;;;;;;;16.50;15.20;;;4.70;99.90;;;;;;4938553;29;20540;-76
2020/12/04 00:17:02;;;;;;;17.47;15.83;;;4.70;99.90;;;;;;4941120;28;20472;-75
2020/12/04 00:19:28;;;;;;;16.83;15.30;;;4.70;99.90;;;;;;4945717;29;20804;-76
2020/12/04 00:21:54;;;;;;;14.97;14.07;;;4.70;99.90;;;;;;4937356;28;20464;-75
2020/12/04 00:24:22;;;;;;;15.70;14.40;;;4.70;99.90;;;;;;4940927;28;20473;-76
2020/12/04 00:26:49;;;;;;;15.70;14.70;;;4.80;99.90;;;;;;4940627;29;20580;-76
2020/12/04 00:29:17;;;;;;;15.87;14.87;;;4.80;99.90;;;;;;4944576;29;20468;-75
2020/12/04 00:31:43;;;;;;;17.10;15.70;;;4.80;99.90;;;;;;4944389;28;20885;-76
2020/12/04 00:34:10;;;;;;;16.97;15.27;;;4.80;99.90;;;;;;4934885;29;21033;-75
2020/12/04 00:36:37;;;;;;;15.93;14.47;;;4.80;99.90;;;;;;4941824;29;20964;-74
2020/12/04 00:39:04;;;;;;;16.10;14.90;;;4.80;99.90;;;;;;4933332;29;20465;-76
2020/12/04 00:41:31;;;;;;;14.53;13.53;;;4.80;99.90;;;;;;4939106;28;20473;-75
2020/12/04 00:43:57;;;;;;;15.60;14.60;;;4.80;99.90;;;;;;4945957;28;20503;-74
2020/12/04 00:46:24;;;;;;;16.20;15.20;;;4.80;99.90;;;;;;4941464;28;20486;-77
2020/12/04 00:48:50;;;;;;;15.80;14.80;;;4.80;99.90;;;;;;4932335;29;20465;-75
2020/12/04 00:51:17;;;;;;;15.70;14.43;;;4.80;99.90;;;;;;4942330;28;20464;-75
2020/12/04 00:53:44;;;;;;;15.77;14.87;;;4.80;99.90;;;;;;4941974;29;20847;-75
2020/12/04 00:56:10;;;;;;;15.20;14.40;;;4.80;99.90;;;;;;4934355;29;20477;-75
2020/12/04 00:58:36;;;;;;;15.23;14.20;;;4.80;99.90;;;;;;4941636;29;20468;-77
2020/12/04 01:01:04;;;;;;;15.63;14.30;;;4.80;99.90;;;;;;4936870;28;20507;-76
2020/12/04 01:03:31;;;;;;;15.10;14.20;;;4.80;99.90;;;;;;4937020;29;20472;-75
2020/12/04 01:05:57;;;;;;;16.10;15.10;;;4.80;99.90;;;;;;4938510;28;20475;-77
2020/12/04 01:08:24;;;;;;;15.20;14.40;;;4.80;99.90;;;;;;4942815;29;20468;-76
2020/12/04 01:10:50;;;;;;;16.47;15.27;;;4.70;99.90;;;;;;4935194;29;20460;-75
2020/12/04 01:13:16;;;;;;;16.57;15.37;;;4.70;99.90;;;;;;4944515;29;20465;-75
2020/12/04 01:15:42;;;;;;;16.27;14.57;;;4.70;99.90;;;;;;4940148;28;20968;-76
2020/12/04 01:18:09;;;;;;;15.43;14.50;;;4.70;99.90;;;;;;4936511;29;20964;-76
2020/12/04 01:20:36;;;;;;;17.27;15.90;;;4.70;99.90;;;;;;4940174;28;20465;-75
2020/12/04 01:23:02;;;;;;;15.57;14.57;;;4.70;99.90;;;;;;4943327;29;20584;-75
2020/12/04 01:25:29;;;;;;;15.23;14.33;;;4.70;99.90;;;;;;4942444;29;20497;-75
2020/12/04 01:27:55;;;;;;;16.80;15.43;;;4.70;99.90;;;;;;4938125;29;20583;-75
2020/12/04 01:30:22;;;;;;;15.47;14.57;;;4.70;99.90;;;;;;4937504;28;20843;-74
2020/12/04 01:32:48;;;;;;;15.13;14.23;;;4.70;99.90;;;;;;4938020;28;20474;-75
2020/12/04 01:35:15;;;;;;;15.37;14.50;;;4.70;99.90;;;;;;4939628;29;20497;-75
2020/12/04 01:37:43;;;;;;;15.83;14.73;;;4.70;99.90;;;;;;4931645;29;20843;-74
2020/12/04 01:40:09;;;;;;;15.73;14.77;;;4.70;99.90;;;;;;4939554;29;20465;-75
2020/12/04 01:42:37;;;;;;;16.50;15.40;;;4.70;99.90;;;;;;4942553;28;21018;-75
2020/12/04 01:45:05;;;;;;;16.40;15.50;;;4.70;99.90;;;;;;4936723;28;20479;-76
2020/12/04 01:47:31;;;;;;;15.00;13.90;;;4.60;99.90;;;;;;4937005;28;20849;-74
2020/12/04 01:49:58;;;;;;;16.43;15.23;;;4.60;99.90;;;;;;4937129;28;20484;-75
2020/12/04 01:52:25;;;;;;;15.13;14.33;;;4.60;99.90;;;;;;4936033;29;20501;-76
2020/12/04 01:54:53;;;;;;;15.97;14.97;;;4.60;99.90;;;;;;4935187;29;20511;-77
2020/12/04 01:57:22;;;;;;;14.60;13.70;;;4.60;99.90;;;;;;4942444;29;20891;-75
2020/12/04 01:59:49;;;;;;;15.83;14.93;;;4.60;99.90;;;;;;4937814;29;20467;-75
2020/12/04 02:02:19;;;;;;;15.20;14.20;;;4.60;99.90;;;;;;4940157;28;20784;-75
2020/12/04 02:04:46;;;;;;;14.90;14.10;;;4.60;99.90;;;;;;4942343;28;20472;-74
2020/12/04 02:07:20;;;;;;;16.20;15.30;;;4.60;99.90;;;;;;4940648;29;20478;-75
2020/12/04 02:09:50;;;;;;;16.27;15.17;;;4.60;99.90;;;;;;4945413;29;20822;-75
2020/12/04 02:12:20;;;;;;;15.43;14.53;;;4.50;99.90;;;;;;4939442;28;20683;-76
2020/12/04 02:14:49;;;;;;;16.20;14.90;;;4.50;99.90;;;;;;4941729;28;21036;-75
2020/12/04 02:17:16;;;;;;;16.00;15.00;;;4.50;99.90;;;;;;4944729;28;20473;-75
2020/12/04 02:19:43;;;;;;;15.93;14.93;;;4.50;99.90;;;;;;4946981;28;20473;-74
2020/12/04 02:22:12;;;;;;;16.43;15.20;;;4.50;99.90;;;;;;4948162;29;20480;-74
2020/12/04 02:24:39;;;;;;;17.10;15.90;;;4.50;99.90;;;;;;4944064;29;20479;-75
2020/12/04 02:27:07;;;;;;;16.10;15.10;;;4.40;99.90;;;;;;4939391;29;20931;-74
2020/12/04 02:29:39;;;;;;;14.43;13.63;;;4.40;99.90;;;;;;4942322;29;20463;-74
2020/12/04 02:32:11;;;;;;;16.37;15.37;;;4.40;99.90;;;;;;4951617;28;20485;-76
2020/12/04 02:34:38;;;;;;;16.57;15.37;;;4.30;99.90;;;;;;4941454;29;20495;-75
2020/12/04 02:37:06;;;;;;;17.63;16.33;;;4.30;99.90;;;;;;4940395;29;20472;-75
2020/12/04 02:39:33;;;;;;;16.90;15.83;;;4.30;99.90;;;;;;4942122;29;20464;-75
2020/12/04 02:42:01;;;;;;;16.57;15.47;;;4.30;99.90;;;;;;4942941;29;20475;-75
2020/12/04 02:44:27;;;;;;;16.93;15.90;;;4.30;99.90;;;;;;4944245;28;20492;-75
2020/12/04 02:46:54;;;;;;;15.80;14.80;;;4.30;99.90;;;;;;4944298;28;20879;-75
2020/12/04 02:49:21;;;;;;;16.30;15.30;;;4.20;99.90;;;;;;4937475;29;20512;-75
2020/12/04 02:51:49;;;;;;;15.30;14.50;;;4.20;99.90;;;;;;4942636;29;20467;-74
2020/12/04 02:54:16;;;;;;;16.80;15.50;;;4.20;99.90;;;;;;4939294;29;20500;-74
2020/12/04 02:56:44;;;;;;;15.60;14.60;;;4.20;99.90;;;;;;4933627;29;21311;-74
2020/12/04 02:59:11;;;;;;;15.50;14.60;;;4.20;99.90;;;;;;4944301;29;20464;-75
2020/12/04 03:01:38;;;;;;;16.43;15.37;;;4.10;99.90;;;;;;4943953;28;20944;-75
2020/12/04 03:04:05;;;;;;;15.87;14.60;;;4.20;99.90;;;;;;4943834;29;20503;-75
2020/12/04 03:06:32;;;;;;;17.10;15.77;;;4.20;99.90;;;;;;4942099;29;20849;-75
2020/12/04 03:08:59;;;;;;;16.33;15.13;;;4.10;99.90;;;;;;4942229;29;20468;-75
2020/12/04 03:11:26;;;;;;;15.87;14.97;;;4.10;99.90;;;;;;4941260;29;20890;-75
2020/12/04 03:13:54;;;;;;;16.03;14.80;;;4.10;99.90;;;;;;4936672;29;20490;-74
2020/12/04 03:16:20;;;;;;;16.87;15.57;;;4.10;99.90;;;;;;4942459;28;20495;-75
2020/12/04 03:18:47;;;;;;;16.77;15.60;;;4.10;99.90;;;;;;4945654;28;20891;-75
2020/12/04 03:21:14;;;;;;;15.37;14.47;;;4.10;99.90;;;;;;4947446;29;20470;-74
2020/12/04 03:23:40;;;;;;;16.00;14.90;;;4.20;99.90;;;;;;4943878;28;20469;-75
2020/12/04 03:26:07;;;;;;;15.97;14.97;;;4.20;99.90;;;;;;4942837;29;20494;-74
2020/12/04 03:28:33;;;;;;;15.00;14.20;;;4.20;99.90;;;;;;4947713;28;20500;-74
2020/12/04 03:31:01;;;;;;;15.47;14.60;;;4.20;99.90;;;;;;4951853;28;20467;-75
2020/12/04 03:33:27;;;;;;;16.17;15.07;;;4.20;99.90;;;;;;4941204;28;20469;-75
2020/12/04 03:35:55;;;;;;;15.77;14.77;;;4.30;99.90;;;;;;4939315;29;20488;-75
2020/12/04 03:38:21;;;;;;;16.10;15.10;;;4.30;99.90;;;;;;4945261;28;20822;-75
2020/12/04 03:40:47;;;;;;;16.90;15.20;;;4.30;99.90;;;;;;4946598;29;20848;-75
2020/12/04 03:43:14;;;;;;;16.07;15.10;;;4.30;99.90;;;;;;4942353;29;20498;-74
2020/12/04 03:45:40;;;;;;;16.47;15.50;;;4.30;99.90;;;;;;4940210;28;20470;-75
2020/12/04 03:48:08;;;;;;;16.87;15.77;;;4.30;99.90;;;;;;4940821;29;20473;-74
2020/12/04 03:50:35;;;;;;;14.90;14.10;;;4.30;99.90;;;;;;4944167;29;20816;-75
2020/12/04 03:53:02;;;;;;;15.03;14.23;;;4.30;99.90;;;;;;4937177;29;20859;-74
2020/12/04 03:55:29;;;;;;;15.13;14.23;;;4.30;99.90;;;;;;4938924;29;20586;-75
2020/12/04 03:57:56;;;;;;;16.27;15.27;;;4.30;99.90;;;;;;4939854;29;20552;-75
2020/12/04 04:00:22;;;;;;;16.80;15.73;;;4.30;99.90;;;;;;4946555;28;20461;-76
2020/12/04 04:02:49;;;;;;;15.47;14.57;;;4.30;99.90;;;;;;4940809;28;20491;-75
2020/12/04 04:05:16;;;;;;;15.40;14.40;;;4.30;99.90;;;;;;4934326;29;20465;-74
2020/12/04 04:07:43;;;;;;;15.50;14.40;;;4.30;99.90;;;;;;4942181;29;20476;-74
2020/12/04 04:10:09;;;;;;;15.70;14.43;;;4.30;99.90;;;;;;4939926;29;20468;-75
2020/12/04 04:12:36;;;;;;;15.27;14.47;;;4.30;99.90;;;;;;4941751;29;20460;-74
2020/12/04 04:15:02;;;;;;;16.70;15.50;;;4.40;99.90;;;;;;4943058;28;20493;-75
2020/12/04 04:17:29;;;;;;;15.33;14.30;;;4.30;99.90;;;;;;4945658;29;20936;-75
2020/12/04 04:19:55;;;;;;;15.10;14.10;;;4.30;99.90;;;;;;4940315;29;20997;-75
2020/12/04 04:22:22;;;;;;;16.07;14.87;;;4.30;99.90;;;;;;4939041;29;20461;-75
2020/12/04 04:24:48;;;;;;;15.50;14.50;;;4.30;99.90;;;;;;4941434;29;20484;-75
2020/12/04 04:27:15;;;;;;;16.33;15.23;;;4.30;99.90;;;;;;4935252;29;20467;-74
2020/12/04 04:29:41;;;;;;;15.70;14.67;;;4.30;99.90;;;;;;4945028;28;20480;-75
2020/12/04 04:32:09;;;;;;;16.27;14.60;;;4.30;99.90;;;;;;4942706;28;20826;-76
2020/12/04 04:34:35;;;;;;;15.23;14.43;;;4.30;99.90;;;;;;4940062;29;20504;-75
2020/12/04 04:37:02;;;;;;;15.63;14.70;;;4.30;99.90;;;;;;4938189;28;20500;-75
2020/12/04 04:39:29;;;;;;;16.27;15.20;;;4.40;99.90;;;;;;4941197;29;20496;-75
2020/12/04 04:41:56;;;;;;;17.10;15.80;;;4.50;99.90;;;;;;4940058;29;21124;-75
2020/12/04 04:44:23;;;;;;;15.70;14.80;;;4.50;99.90;;;;;;4936988;29;20497;-75
2020/12/04 04:47:00;;;;;;;14.57;13.60;;;4.50;99.90;;;;;;4942267;28;20471;-74
2020/12/04 04:49:28;;;;;;;19.37;17.97;;;4.50;99.90;;;;;;4939579;29;20998;-76
2020/12/04 04:51:56;;;;;;;14.80;13.67;;;4.50;99.90;;;;;;4942650;29;20476;-75
2020/12/04 04:54:23;;;;;;;14.50;13.70;;;4.60;99.90;;;;;;4942189;28;20517;-76
2020/12/04 04:56:51;;;;;;;15.23;14.33;;;4.50;99.90;;;;;;4940897;29;20476;-75
2020/12/04 04:59:18;;;;;;;14.07;13.27;;;4.60;99.90;;;;;;4943525;29;20460;-75
2020/12/04 05:01:46;;;;;;;14.80;14.00;;;4.60;99.90;;;;;;4938750;28;20999;-74
2020/12/04 05:04:13;;;;;;;15.70;14.60;;;4.50;99.90;;;;;;4935849;29;20477;-74
2020/12/04 05:06:40;;;;;;;14.40;13.60;;;4.50;99.90;;;;;;4939243;29;20496;-74
2020/12/04 05:09:10;;;;;;;16.03;14.80;;;4.50;99.90;;;;;;4934557;29;20469;-75
2020/12/04 05:11:37;;;;;;;14.77;13.80;;;4.60;99.90;;;;;;4940220;29;21037;-75
2020/12/04 05:14:22;;;;;;;15.40;14.40;;;4.60;99.90;;;;;;4941639;28;20519;-75
2020/12/04 05:16:52;;;;;;;14.83;14.03;;;4.60;99.90;;;;;;4947737;28;20482;-76
2020/12/04 05:19:29;;;;;;;15.23;14.33;;;4.60;99.90;;;;;;4933698;29;21054;-75
2020/12/04 05:21:55;;;;;;;14.60;13.60;;;4.70;99.90;;;;;;4937449;29;20463;-74
2020/12/04 05:24:26;;;;;;;15.00;14.17;;;4.70;99.90;;;;;;4940515;29;20468;-75
2020/12/04 05:26:52;;;;;;;14.43;13.63;;;4.70;99.90;;;;;;4939749;29;21042;-75
2020/12/04 05:29:20;;;;;;;14.80;14.00;;;4.70;99.90;;;;;;4939645;29;20457;-74
2020/12/04 05:31:46;;;;;;;14.83;13.93;;;4.80;99.90;;;;;;4937198;28;20475;-76
2020/12/04 05:34:20;;;;;;;14.50;13.70;;;4.80;99.90;;;;;;4938622;29;20519;-76
2020/12/04 05:36:50;;;;;;;15.10;14.20;;;4.80;99.90;;;;;;4941696;29;20846;-75
2020/12/04 05:39:16;;;;;;;18.13;15.00;;;4.80;99.90;;;;;;4931375;29;20472;-75
2020/12/04 05:41:47;;;;;;;15.60;14.50;;;4.80;99.90;;;;;;4942050;29;20469;-75
2020/12/04 05:44:14;;;;;;;14.77;14.07;;;4.80;99.90;;;;;;4932297;29;20485;-76
2020/12/04 05:46:52;;;;;;;14.80;14.00;;;4.80;99.90;;;;;;4937143;28;20460;-75
2020/12/04 05:49:18;;;;;;;15.20;14.23;;;4.80;99.90;;;;;;4937862;29;20464;-76
2020/12/04 05:51:47;;;;;;;15.07;14.20;;;4.70;99.90;;;;;;4942192;29;20507;-76
2020/12/04 05:54:13;;;;;;;14.47;13.67;;;4.70;99.90;;;;;;4938193;28;20470;-76
2020/12/04 05:56:40;;;;;;;16.10;15.20;;;4.80;99.90;;;;;;4935180;29;20468;-76
2020/12/04 05:59:08;;;;;;;15.57;14.60;;;4.80;99.90;;;;;;4943049;28;20467;-75
2020/12/04 06:01:34;;;;;;;15.63;14.63;;;4.80;99.90;;;;;;4935433;28;20493;-76
2020/12/04 06:04:01;;;;;;;14.33;13.53;;;4.90;99.90;;;;;;4933479;29;20965;-76
2020/12/04 06:06:29;;;;;;;15.23;14.50;;;4.90;99.90;;;;;;4933363;29;20478;-75
2020/12/04 06:09:00;;;;;;;15.50;14.70;;;4.90;99.90;;;;;;4941018;29;22424;-75
2020/12/04 06:11:32;;;;;;;14.33;13.33;;;5.00;99.90;;;;;;4940012;29;20890;-74
2020/12/04 06:13:59;;;;;;;14.43;13.67;;;5.00;99.90;;;;;;4941422;29;20476;-76
2020/12/04 06:16:26;;;;;;;14.60;13.80;;;5.00;99.90;;;;;;4942235;28;20959;-75
2020/12/04 06:18:52;;;;;;;16.63;15.63;;;5.00;99.90;;;;;;4939723;28;20468;-76
2020/12/04 06:21:47;;;;;;;15.50;14.47;;;5.00;99.90;;;;;;4937435;29;20598;-74
2020/12/04 06:24:13;;;;;;;14.77;13.87;;;5.10;99.90;;;;;;4932728;29;20468;-74
2020/12/04 06:26:47;;;;;;;15.40;14.40;;;5.10;99.90;;;;;;4938385;29;20468;-75
2020/12/04 06:29:13;;;;;;;15.50;14.70;;;5.10;99.90;;;;;;4941016;29;21077;-75
2020/12/04 06:31:40;;;;;;;17.87;16.20;;;5.00;99.90;;;;;;4941165;28;20499;-75
2020/12/04 06:34:14;;;;;;;15.10;14.30;;;5.00;99.90;;;;;;4937587;29;20476;-75
2020/12/04 06:36:41;;;;;;;15.50;14.57;;;5.00;99.90;;;;;;4937211;29;21032;-74
2020/12/04 06:39:09;;;;;;;15.70;14.70;;;5.00;99.90;;;;;;4942062;29;20495;-76
2020/12/04 06:41:38;;;;;;;15.80;14.60;;;5.00;99.90;;;;;;4939695;29;20852;-76
2020/12/04 06:44:06;;;;;;;16.93;14.17;;;5.00;99.90;;;;;;4936584;29;20579;-76
2020/12/04 06:46:42;;;;;;;15.33;14.13;;;5.10;99.90;;;;;;4941509;28;20480;-75
2020/12/04 06:49:23;;;;;;;14.60;13.27;;;5.20;99.90;;;;;;4938002;29;20474;-76
2020/12/04 06:52:01;;;;;;;14.47;13.67;;;5.30;99.90;;;;;;4938159;28;20468;-76
2020/12/04 06:54:30;;;;;;;14.80;14.00;;;5.30;99.90;;;;;;4936203;28;20862;-75
2020/12/04 06:56:56;;;;;;;14.60;13.70;;;5.40;99.90;;;;;;4944859;29;20476;-75
2020/12/04 06:59:28;;;;;;;15.67;14.40;;;5.30;99.90;;;;;;4944268;29;20460;-75
2020/12/04 07:02:04;;;;;;;15.93;14.47;;;5.40;99.90;;;;;;4935158;28;20503;-75
2020/12/04 07:04:31;;;;;;;15.30;14.03;;;5.40;99.90;;;;;;4947566;29;20892;-74
2020/12/04 07:07:12;;;;;;;15.43;14.07;;;5.40;99.90;;;;;;4941057;29;20503;-75
2020/12/04 07:09:40;;;;;;;15.60;14.20;;;5.40;99.90;;;;;;4938694;29;20461;-75
2020/12/04 07:12:09;;;;;;;14.47;13.50;;;5.40;99.90;;;;;;4944857;29;20779;-74
2020/12/04 07:14:35;;;;;;;14.00;13.00;;;5.30;99.90;;;;;;4940307;28;20508;-75
2020/12/04 07:17:02;;;;;;;14.07;12.97;;;5.40;99.90;;;;;;4938003;28;20464;-75
2020/12/04 07:19:29;;;;;;;15.13;14.13;;;5.40;99.90;;;;;;4947696;28;20467;-75
2020/12/04 07:21:55;;;;;;;14.10;13.07;;;5.40;99.90;;;;;;4942951;29;20848;-75
2020/12/04 07:24:21;;;;;;;14.10;13.40;;;5.40;99.90;;;;;;4936991;29;20971;-75
2020/12/04 07:26:55;;;;;;;14.33;13.37;;;5.50;99.90;;;;;;4931277;29;20532;-75
2020/12/04 07:29:22;;;;;;;13.87;13.10;;;5.60;99.90;;;;;;4938459;29;20497;-75
2020/12/04 07:31:51;;;;;;;15.80;14.90;;;5.70;99.90;;;;;;4940881;28;20464;-75
2020/12/04 07:34:23;;;;;;;14.60;13.80;;;5.70;99.90;;;;;;4940240;29;20468;-73
2020/12/04 07:36:53;;;;;;;14.77;13.93;;;5.70;99.90;;;;;;4928765;29;20501;-75
2020/12/04 07:39:30;;;;;;;18.03;13.47;;;5.70;99.90;;;;;;4930588;29;20783;-75
2020/12/04 07:42:00;;;;;;;14.33;13.63;;;5.80;99.90;;;;;;4935837;29;20461;-75
2020/12/04 07:44:28;;;;;;;14.77;13.87;;;5.80;99.90;;;;;;4935206;28;20842;-74
2020/12/04 07:47:03;;;;;;;14.10;13.30;;;5.80;99.90;;;;;;4937860;28;20473;-75
2020/12/04 07:49:31;;;;;;;15.20;14.17;;;5.80;99.90;;;;;;4941749;28;20468;-75
2020/12/04 07:52:14;;;;;;;16.87;15.30;;;5.70;99.90;;;;;;4938978;29;20471;-74
2020/12/04 07:54:41;;;;;;;15.97;14.60;;;5.60;99.90;;;;;;4934371;28;20504;-75
2020/12/04 07:57:09;;;;;;;16.43;14.97;;;5.60;99.90;;;;;;4940723;29;20472;-73
2020/12/04 07:59:38;;;;;;;15.90;14.53;;;5.60;99.90;;;;;;4942000;29;20469;-74
2020/12/04 08:02:05;;;;;;;16.73;15.20;;;5.50;99.90;;;;;;4942570;28;20511;-75
2020/12/04 08:04:33;;;;;;;16.43;14.73;;;5.60;99.90;;;;;;4942434;28;20487;-75
2020/12/04 08:07:08;;;;;;;14.87;13.73;;;5.60;99.90;;;;;;4937228;28;20817;-75
2020/12/04 08:09:39;;;;;;;17.17;14.93;;;5.60;99.90;;;;;;4937056;29;20996;-75
2020/12/04 08:12:18;;;;;;;16.97;15.30;;;5.70;99.90;;;;;;4937039;29;20485;-74
2020/12/04 08:14:53;;;;;;;15.80;14.17;;;5.80;99.90;;;;;;4935801;29;20488;-75
2020/12/04 08:17:20;;;;;;;20.17;14.67;;;5.80;99.90;;;;;;4948707;28;21090;-75
2020/12/04 08:19:47;;;;;;;22.23;14.57;;;5.80;99.90;;;;;;4946494;28;20839;-75
2020/12/04 08:22:13;;;;;;;17.37;14.87;;;5.90;99.90;;;;;;4938401;29;20485;-74
2020/12/04 08:24:41;;;;;;;16.37;15.07;;;6.00;99.90;;;;;;4938205;29;20484;-75
2020/12/04 08:27:11;;;;;;;14.53;13.50;;;6.10;99.90;;;;;;4939901;29;20465;-74
2020/12/04 08:29:40;;;;;;;14.77;13.63;;;6.20;99.90;;;;;;4933672;29;20471;-75
2020/12/04 08:32:10;;;;;;;16.20;15.30;;;6.30;99.90;;;;;;4940041;28;20544;-75
2020/12/04 08:34:36;;;;;;;14.70;13.90;;;6.40;99.90;;;;;;4937219;29;20470;-75
2020/12/04 08:37:04;;;;;;;14.80;14.00;;;6.40;99.90;;;;;;4938346;29;20558;-75
2020/12/04 08:39:39;;;;;;;14.67;13.90;;;6.50;99.90;;;;;;4938624;29;20474;-75
2020/12/04 08:42:18;;;;;;;14.80;14.00;;;6.50;99.90;;;;;;4935027;29;20845;-74
2020/12/04 08:44:58;;;;;;;14.63;13.77;;;6.50;99.90;;;;;;4935313;29;20472;-74
2020/12/04 08:47:36;;;;;;;13.90;13.30;;;6.60;99.90;;;;;;4936414;28;20478;-75
2020/12/04 08:50:09;;;;;;;14.43;13.53;;;6.70;99.90;;;;;;4937454;29;20504;-75
2020/12/04 08:52:40;;;;;;;14.50;13.67;;;6.70;99.90;;;;;;4937944;29;20472;-74
2020/12/04 08:55:12;;;;;;;14.70;13.90;;;6.80;99.90;;;;;;4936792;29;20499;-75
2020/12/04 08:57:39;;;;;;;14.33;13.63;;;6.90;99.90;;;;;;4935811;29;21070;-75
2020/12/04 09:00:09;;;;;;;14.20;13.60;;;7.00;99.90;;;;;;4939102;28;20546;-75
2020/12/04 09:02:37;;;;;;;15.13;14.23;;;7.10;99.90;;;;;;4937047;28;20476;-76
2020/12/04 09:05:05;;;;;;;14.10;13.40;;;7.20;99.90;;;;;;4938121;28;20571;-75
2020/12/04 09:07:31;;;;;;;15.27;14.47;;;7.20;99.90;;;;;;4934759;28;20465;-74
2020/12/04 09:09:58;;;;;;;14.40;13.40;;;7.20;99.90;;;;;;4940206;29;20468;-75
2020/12/04 09:12:25;;;;;;;15.07;14.03;;;7.20;99.90;;;;;;4933906;29;20828;-75
2020/12/04 09:14:52;;;;;;;14.83;13.90;;;7.40;99.90;;;;;;4940828;28;20490;-75
2020/12/04 09:17:19;;;;;;;18.17;14.60;;;7.50;99.90;;;;;;4938771;28;20850;-75
2020/12/04 09:19:46;;;;;;;13.67;12.97;;;7.60;99.90;;;;;;4938950;28;20784;-75
2020/12/04 09:22:14;;;;;;;16.10;14.00;;;7.80;99.90;;;;;;4938811;29;20834;-76
2020/12/04 09:24:42;;;;;;;19.43;16.07;;;7.90;99.90;;;;;;4934960;29;20490;-75
2020/12/04 09:27:08;;;;;;;15.67;14.20;;;8.00;99.90;;;;;;4936571;29;20842;-76
2020/12/04 09:29:35;;;;;;;17.97;16.13;;;8.00;99.90;;;;;;4937060;29;20469;-75
2020/12/04 09:32:10;;;;;;;34.50;24.33;;;8.00;99.90;;;;;;4940377;28;20498;-75
2020/12/04 09:34:38;;;;;;;18.73;16.33;;;8.00;99.90;;;;;;4936664;28;20485;-75
2020/12/04 09:37:26;;;;;;;18.07;16.70;;;8.10;99.90;;;;;;4940980;29;20484;-75
2020/12/04 09:39:54;;;;;;;16.37;15.27;;;8.20;99.90;;;;;;4935123;29;20473;-76
2020/12/04 09:42:22;;;;;;;14.90;13.93;;;8.30;99.90;;;;;;4940995;28;20475;-76
2020/12/04 09:44:48;;;;;;;14.57;13.57;;;8.30;99.90;;;;;;4935675;29;20959;-75
2020/12/04 09:47:16;;;;;;;16.23;15.07;;;8.40;99.90;;;;;;4939947;28;20466;-75
2020/12/04 09:49:45;;;;;;;15.43;14.43;;;8.40;99.90;;;;;;4936761;29;20472;-75
2020/12/04 09:52:12;;;;;;;17.20;15.30;;;8.30;99.90;;;;;;4940390;29;20496;-75
2020/12/04 09:54:40;;;;;;;15.17;14.30;;;8.40;99.90;;;;;;4944109;29;20477;-75
2020/12/04 09:57:08;;;;;;;15.10;13.87;;;8.40;99.90;;;;;;4939828;29;20487;-75
2020/12/04 09:59:35;;;;;;;16.10;15.10;;;8.40;99.90;;;;;;4938160;29;20471;-75
2020/12/04 10:02:02;;;;;;;16.63;15.03;;;8.50;99.90;;;;;;4941046;29;20835;-75
2020/12/04 10:04:29;;;;;;;16.03;14.80;;;8.50;99.90;;;;;;4935526;29;20472;-75
2020/12/04 10:06:57;;;;;;;14.50;13.47;;;8.60;99.90;;;;;;4938153;29;20471;-75
2020/12/04 10:09:24;;;;;;;17.70;16.10;;;8.80;99.90;;;;;;4940318;28;20468;-75
2020/12/04 10:11:52;;;;;;;18.17;16.47;;;8.80;99.90;;;;;;4939558;29;20475;-74
2020/12/04 10:14:20;;;;;;;16.27;15.33;;;8.80;99.90;;;;;;4935837;29;20463;-76
2020/12/04 10:16:47;;;;;;;16.70;15.57;;;8.80;99.90;;;;;;4943871;28;20501;-75
2020/12/04 10:19:16;;;;;;;16.90;15.40;;;8.80;99.90;;;;;;4944832;28;20473;-76
2020/12/04 10:21:45;;;;;;;15.87;14.77;;;8.70;99.90;;;;;;4941645;29;20465;-75
2020/12/04 10:24:13;;;;;;;14.63;13.83;;;8.70;99.90;;;;;;4941726;28;20491;-75
2020/12/04 10:26:40;;;;;;;14.30;13.60;;;8.80;99.90;;;;;;4938203;29;20495;-75
2020/12/04 10:29:07;;;;;;;13.87;13.13;;;8.90;99.90;;;;;;4945803;29;20478;-75
2020/12/04 10:31:35;;;;;;;14.03;13.20;;;8.90;99.90;;;;;;4943295;28;20472;-75
2020/12/04 10:34:03;;;;;;;13.47;12.77;;;9.10;99.90;;;;;;4945448;29;21078;-75
2020/12/04 10:36:30;;;;;;;16.70;15.40;;;9.00;99.90;;;;;;4943508;29;20508;-75
2020/12/04 10:38:57;;;;;;;14.90;14.00;;;9.00;99.90;;;;;;4943574;29;20985;-75
2020/12/04 10:41:24;;;;;;;14.70;13.80;;;9.20;99.90;;;;;;4935145;29;20966;-75
2020/12/04 10:43:51;;;;;;;14.73;13.90;;;9.40;99.90;;;;;;4940633;28;20519;-75
2020/12/04 10:46:18;;;;;;;14.40;13.70;;;9.30;99.90;;;;;;4936905;28;20520;-75
2020/12/04 10:48:45;;;;;;;13.50;12.70;;;9.40;99.90;;;;;;4943145;29;20479;-76
2020/12/04 10:51:12;;;;;;;13.97;13.27;;;9.50;99.90;;;;;;4943758;29;20500;-75
2020/12/04 10:53:39;;;;;;;14.07;13.27;;;9.70;99.90;;;;;;4935529;29;20472;-75
2020/12/04 10:56:06;;;;;;;17.13;16.03;;;9.80;99.90;;;;;;4945598;29;20884;-75
2020/12/04 10:58:33;;;;;;;15.70;14.60;;;9.90;99.90;;;;;;4950759;28;20561;-75
2020/12/04 11:00:59;;;;;;;14.23;13.50;;;9.90;99.90;;;;;;4942155;28;20503;-75
2020/12/04 11:03:35;;;;;;;14.10;13.33;;;9.80;99.90;;;;;;4942486;29;20834;-75
2020/12/04 11:06:00;;;;;;;13.13;12.63;;;9.70;99.90;;;;;;4939686;29;20840;-75
2020/12/04 11:08:27;;;;;;;13.73;13.13;;;9.70;99.90;;;;;;4940703;29;20475;-75
2020/12/04 11:10:53;;;;;;;13.20;12.70;;;9.60;99.90;;;;;;4945945;29;20218;-74
2020/12/04 11:13:21;;;;;;;13.30;12.70;;;9.70;99.90;;;;;;4944219;29;20570;-75
2020/12/04 11:15:49;;;;;;;13.00;12.40;;;9.60;99.90;;;;;;4942433;28;20500;-75
2020/12/04 11:18:15;;;;;;;13.40;12.80;;;9.50;99.90;;;;;;4934734;29;20477;-75
2020/12/04 11:20:42;;;;;;;13.10;12.50;;;9.40;99.90;;;;;;4943061;29;20517;-75
2020/12/04 11:23:09;;;;;;;15.47;14.57;;;9.40;99.90;;;;;;4943578;29;20508;-75
2020/12/04 11:25:36;;;;;;;14.10;13.30;;;9.30;99.90;;;;;;4937714;29;20496;-75
2020/12/04 11:28:02;;;;;;;13.37;12.70;;;9.40;99.90;;;;;;4939553;29;20559;-75
2020/12/04 11:30:29;;;;;;;13.13;12.53;;;9.50;99.90;;;;;;4943826;28;20483;-75
2020/12/04 11:32:56;;;;;;;13.17;12.67;;;9.50;99.90;;;;;;4937576;28;20532;-75
2020/12/04 11:35:23;;;;;;;13.20;12.60;;;9.60;99.90;;;;;;4938018;29;20499;-75
2020/12/04 11:37:50;;;;;;;13.47;12.77;;;9.60;99.90;;;;;;4944140;28;20481;-75
2020/12/04 11:40:18;;;;;;;13.53;12.93;;;9.70;99.90;;;;;;4940867;29;20474;-75
2020/12/04 11:42:46;;;;;;;12.60;12.10;;;9.70;99.90;;;;;;4937466;29;20510;-75
2020/12/04 11:45:14;;;;;;;12.80;12.20;;;9.80;99.90;;;;;;4941220;28;20471;-74
2020/12/04 11:47:41;;;;;;;12.80;12.20;;;10.00;99.90;;;;;;4935334;28;20526;-75
2020/12/04 11:50:10;;;;;;;13.13;12.50;;;10.10;99.90;;;;;;4936974;29;20469;-75
2020/12/04 11:52:37;;;;;;;13.80;13.10;;;10.10;99.90;;;;;;4946185;29;20461;-74
2020/12/04 11:55:05;;;;;;;13.53;12.83;;;10.10;99.90;;;;;;4939498;29;20502;-75
2020/12/04 11:57:33;;;;;;;13.63;12.93;;;10.10;99.90;;;;;;4939994;29;20865;-74
2020/12/04 12:00:00;;;;;;;13.30;12.73;;;10.10;99.90;;;;;;4932309;29;20514;-75
2020/12/04 12:02:27;;;;;;;14.33;13.63;;;10.00;99.90;;;;;;4937938;28;20466;-75
2020/12/04 12:04:54;;;;;;;16.20;15.20;;;10.00;99.90;;;;;;4942447;29;20475;-75
2020/12/04 12:07:21;;;;;;;19.90;17.60;;;10.10;99.90;;;;;;4940293;29;20498;-75
2020/12/04 12:09:47;;;;;;;17.97;16.57;;;10.20;99.90;;;;;;4940982;29;20834;-75
2020/12/04 12:12:16;;;;;;;14.33;13.63;;;10.30;99.90;;;;;;4945231;29;21320;-75
2020/12/04 12:14:44;;;;;;;14.10;13.40;;;10.70;99.90;;;;;;4944182;29;20464;-74
2020/12/04 12:17:12;;;;;;;13.80;13.20;;;11.00;99.90;;;;;;4946336;28;20467;-74
2020/12/04 12:19:40;;;;;;;13.00;12.40;;;11.00;99.90;;;;;;4937936;28;20500;-75
2020/12/04 12:22:07;;;;;;;13.17;12.57;;;10.90;99.90;;;;;;4938606;29;20469;-74
2020/12/04 12:24:35;;;;;;;13.07;12.50;;;10.70;99.90;;;;;;4942611;29;20477;-74
2020/12/04 12:27:01;;;;;;;13.63;12.90;;;10.40;99.90;;;;;;4944730;29;20582;-75
2020/12/04 12:29:28;;;;;;;14.10;13.40;;;10.20;99.90;;;;;;4943554;29;20559;-74
2020/12/04 12:31:54;;;;;;;13.60;13.00;;;10.10;99.90;;;;;;4942449;28;20478;-75
2020/12/04 12:34:21;;;;;;;13.63;13.03;;;10.00;99.90;;;;;;4939906;29;20491;-74
2020/12/04 12:36:48;;;;;;;13.53;12.90;;;9.80;99.90;;;;;;4938640;29;20504;-75
2020/12/04 12:39:14;;;;;;;13.93;13.13;;;9.60;99.90;;;;;;4941359;29;20479;-75
2020/12/04 12:41:41;;;;;;;13.37;12.77;;;9.70;99.90;;;;;;4941504;29;20972;-74